map of AKN home
AKN - Airport
Location
City:  King Salmon, Alaska, United States
ICAO:PAKN
IATA:AKN
FAA LID:AKN

Details
Type:Airport (Part 139 Class I)
Use:Public/Civil
Latitude:5840'35"N (58.676493)
Longitude:15638'55"W (-156.648690)
Datum:WGS 1984
Elevation:73 ft (22 m)
Variation:13.04E (WMM2015v2 magnetic declination)
-0.28 annual change
Runways:2
Longest:8901 × 150 ft (2713 × 45.5 m), paved

Time
Time Zone:UTC-9 (DST-8)
Local Time:

Weather
METAR:PAKN 041354Z AUTO 04006KT 10SM BKN038 A2987 RMK AO2 SLPNO TSNO $
TAF:PAKN 041139Z 0412/0512 22010KT P6SM VCSH SCT015 OVC025
FM041600 11008KT P6SM BKN035 OVC050
FM042200 12014KT 3SM -RA BR BKN015 OVC025
FM050600 18007KT 6SM BR SCT015 BKN035

Related Locations
Nearby:
Farthest:FAAF: 10771 mi / 17334 km
Struisbaai [Andrew's Field Airport], WC, ZA

Find:

   beyond  
but within

Other Information
Maps:
NOTAMs:
Links:
Sources:

  
  • flag of United States
  • flag of Alaska
  

Airport Diagram

Airport diagram for AKN

Airport diagram PDF from FAA

Sectional Chart

Flight Planning
at skyvector.com

Satellite Image

Google Maps Satellite view

 

Copyright © 2004-2019 Karl L. Swartz. All rights reserved.
The Great Circle Mapper name and logo are trademarks of the Great Circle Mapper.
All other trademarks mentioned herein belong to their respective owners.
Please see credits for attibutions and further copyright information.

  Follow gcmap on Facebook Follow gcmap on Twitter GCmap on LinkedIn

hCard Microformat

Geo Microformat